sensor_id;sensor_type;location;lat;lon;timestamp;temperature;humidity
25825;DHT22;13658;44.534;18.694;2022-10-16T00:01:13;9.10;99.90
25825;DHT22;13658;44.534;18.694;2022-10-16T00:03:41;9.00;99.90
25825;DHT22;13658;44.534;18.694;2022-10-16T00:06:09;9.10;99.90
25825;DHT22;13658;44.534;18.694;2022-10-16T00:08:36;9.00;99.90
25825;DHT22;13658;44.534;18.694;2022-10-16T00:11:09;9.00;99.90
25825;DHT22;13658;44.534;18.694;2022-10-16T00:13:37;9.10;99.90
25825;DHT22;13658;44.534;18.694;2022-10-16T00:16:04;9.10;99.90
25825;DHT22;13658;44.534;18.694;2022-10-16T00:18:30;9.10;99.90
25825;DHT22;13658;44.534;18.694;2022-10-16T00:21:08;9.10;99.90
25825;DHT22;13658;44.534;18.694;2022-10-16T00:23:35;9.10;99.90
25825;DHT22;13658;44.534;18.694;2022-10-16T00:26:04;8.90;99.90
25825;DHT22;13658;44.534;18.694;2022-10-16T00:28:33;8.90;99.90
25825;DHT22;13658;44.534;18.694;2022-10-16T00:31:02;8.80;99.90
25825;DHT22;13658;44.534;18.694;2022-10-16T00:33:28;8.80;99.90
25825;DHT22;13658;44.534;18.694;2022-10-16T00:35:54;8.90;99.90
25825;DHT22;13658;44.534;18.694;2022-10-16T00:38:23;8.80;99.90
25825;DHT22;13658;44.534;18.694;2022-10-16T00:40:49;8.90;99.90
25825;DHT22;13658;44.534;18.694;2022-10-16T00:46:03;8.70;99.90
25825;DHT22;13658;44.534;18.694;2022-10-16T00:48:30;8.60;99.90
25825;DHT22;13658;44.534;18.694;2022-10-16T00:50:57;8.60;99.90
25825;DHT22;13658;44.534;18.694;2022-10-16T00:53:25;8.40;99.90
25825;DHT22;13658;44.534;18.694;2022-10-16T00:55:51;8.30;99.90
25825;DHT22;13658;44.534;18.694;2022-10-16T00:58:17;8.40;99.90
25825;DHT22;13658;44.534;18.694;2022-10-16T01:00:43;8.40;99.90
25825;DHT22;13658;44.534;18.694;2022-10-16T01:03:32;8.50;99.90
25825;DHT22;13658;44.534;18.694;2022-10-16T01:11:44;8.60;99.90
25825;DHT22;13658;44.534;18.694;2022-10-16T01:17:06;8.60;99.90
25825;DHT22;13658;44.534;18.694;2022-10-16T01:22:26;8.30;99.90
25825;DHT22;13658;44.534;18.694;2022-10-16T01:24:55;8.30;99.90
25825;DHT22;13658;44.534;18.694;2022-10-16T01:27:30;8.30;99.90
25825;DHT22;13658;44.534;18.694;2022-10-16T01:30:09;8.40;99.90
25825;DHT22;13658;44.534;18.694;2022-10-16T01:35:11;8.20;99.90
25825;DHT22;13658;44.534;18.694;2022-10-16T01:37:52;8.30;99.90
25825;DHT22;13658;44.534;18.694;2022-10-16T01:40:20;8.40;99.90
25825;DHT22;13658;44.534;18.694;2022-10-16T01:43:00;8.40;99.90
25825;DHT22;13658;44.534;18.694;2022-10-16T01:45:28;8.50;99.90
25825;DHT22;13658;44.534;18.694;2022-10-16T01:47:56;8.50;99.90
25825;DHT22;13658;44.534;18.694;2022-10-16T01:50:24;8.50;99.90
25825;DHT22;13658;44.534;18.694;2022-10-16T01:52:53;8.50;99.90
25825;DHT22;13658;44.534;18.694;2022-10-16T01:55:30;8.50;99.90
25825;DHT22;13658;44.534;18.694;2022-10-16T01:57:59;8.50;99.90
25825;DHT22;13658;44.534;18.694;2022-10-16T02:00:28;8.50;99.90
25825;DHT22;13658;44.534;18.694;2022-10-16T02:02:55;8.50;99.90
25825;DHT22;13658;44.534;18.694;2022-10-16T02:05:37;8.50;99.90
25825;DHT22;13658;44.534;18.694;2022-10-16T02:08:05;8.50;99.90
25825;DHT22;13658;44.534;18.694;2022-10-16T02:10:31;8.50;99.90
25825;DHT22;13658;44.534;18.694;2022-10-16T02:13:06;8.40;99.90
25825;DHT22;13658;44.534;18.694;2022-10-16T02:15:33;8.40;99.90
25825;DHT22;13658;44.534;18.694;2022-10-16T02:17:59;8.40;99.90
25825;DHT22;13658;44.534;18.694;2022-10-16T02:20:27;8.40;99.90
25825;DHT22;13658;44.534;18.694;2022-10-16T02:22:56;8.40;99.90
25825;DHT22;13658;44.534;18.694;2022-10-16T02:28:08;8.30;99.90
25825;DHT22;13658;44.534;18.694;2022-10-16T02:33:05;8.30;99.90
25825;DHT22;13658;44.534;18.694;2022-10-16T02:35:32;8.30;99.90
25825;DHT22;13658;44.534;18.694;2022-10-16T02:37:59;8.30;99.90
25825;DHT22;13658;44.534;18.694;2022-10-16T02:40:26;8.20;99.90
25825;DHT22;13658;44.534;18.694;2022-10-16T02:42:54;8.20;99.90
25825;DHT22;13658;44.534;18.694;2022-10-16T02:45:21;8.20;99.90
25825;DHT22;13658;44.534;18.694;2022-10-16T02:47:48;8.20;99.90
25825;DHT22;13658;44.534;18.694;2022-10-16T02:50:14;8.20;99.90
25825;DHT22;13658;44.534;18.694;2022-10-16T02:52:40;8.20;99.90
25825;DHT22;13658;44.534;18.694;2022-10-16T02:55:06;7.90;99.90
25825;DHT22;13658;44.534;18.694;2022-10-16T02:57:32;7.70;99.90
25825;DHT22;13658;44.534;18.694;2022-10-16T02:59:58;7.80;99.90
25825;DHT22;13658;44.534;18.694;2022-10-16T03:02:28;7.60;99.90
25825;DHT22;13658;44.534;18.694;2022-10-16T03:04:54;7.50;99.90
25825;DHT22;13658;44.534;18.694;2022-10-16T03:07:19;7.50;99.90
25825;DHT22;13658;44.534;18.694;2022-10-16T03:09:45;7.50;99.90
25825;DHT22;13658;44.534;18.694;2022-10-16T03:12:11;7.50;99.90
25825;DHT22;13658;44.534;18.694;2022-10-16T03:14:37;7.60;99.90
25825;DHT22;13658;44.534;18.694;2022-10-16T03:17:05;7.70;99.90
25825;DHT22;13658;44.534;18.694;2022-10-16T03:19:31;7.70;99.90
25825;DHT22;13658;44.534;18.694;2022-10-16T03:21:57;7.70;99.90
25825;DHT22;13658;44.534;18.694;2022-10-16T03:24:23;7.70;99.90
25825;DHT22;13658;44.534;18.694;2022-10-16T03:26:49;7.60;99.90
25825;DHT22;13658;44.534;18.694;2022-10-16T03:29:15;7.60;99.90
25825;DHT22;13658;44.534;18.694;2022-10-16T03:31:41;7.60;99.90
25825;DHT22;13658;44.534;18.694;2022-10-16T03:34:07;7.60;99.90
25825;DHT22;13658;44.534;18.694;2022-10-16T03:36:33;7.60;99.90
25825;DHT22;13658;44.534;18.694;2022-10-16T03:38:59;7.60;99.90
25825;DHT22;13658;44.534;18.694;2022-10-16T03:41:25;7.60;99.90
25825;DHT22;13658;44.534;18.694;2022-10-16T03:43:51;7.70;99.90
25825;DHT22;13658;44.534;18.694;2022-10-16T03:46:17;7.70;99.90
25825;DHT22;13658;44.534;18.694;2022-10-16T03:48:43;7.70;99.90
25825;DHT22;13658;44.534;18.694;2022-10-16T03:51:09;7.80;99.90
25825;DHT22;13658;44.534;18.694;2022-10-16T03:53:35;7.80;99.90
25825;DHT22;13658;44.534;18.694;2022-10-16T03:56:01;7.90;99.90
25825;DHT22;13658;44.534;18.694;2022-10-16T03:58:27;7.90;99.90
25825;DHT22;13658;44.534;18.694;2022-10-16T04:00:54;7.80;99.90
25825;DHT22;13658;44.534;18.694;2022-10-16T04:03:20;7.70;99.90
25825;DHT22;13658;44.534;18.694;2022-10-16T04:05:46;7.70;99.90
25825;DHT22;13658;44.534;18.694;2022-10-16T04:08:12;7.60;99.90
25825;DHT22;13658;44.534;18.694;2022-10-16T04:10:38;7.70;99.90
25825;DHT22;13658;44.534;18.694;2022-10-16T04:13:04;7.70;99.90
25825;DHT22;13658;44.534;18.694;2022-10-16T04:15:30;7.70;99.90
25825;DHT22;13658;44.534;18.694;2022-10-16T04:17:56;7.70;99.90
25825;DHT22;13658;44.534;18.694;2022-10-16T04:20:22;7.70;99.90
25825;DHT22;13658;44.534;18.694;2022-10-16T04:22:48;7.70;99.90
25825;DHT22;13658;44.534;18.694;2022-10-16T04:25:14;7.70;99.90
25825;DHT22;13658;44.534;18.694;2022-10-16T04:27:40;7.80;99.90
25825;DHT22;13658;44.534;18.694;2022-10-16T04:30:06;7.60;99.90
25825;DHT22;13658;44.534;18.694;2022-10-16T04:32:33;7.60;99.90
25825;DHT22;13658;44.534;18.694;2022-10-16T04:34:58;7.60;99.90
25825;DHT22;13658;44.534;18.694;2022-10-16T04:37:26;7.60;99.90
25825;DHT22;13658;44.534;18.694;2022-10-16T04:39:52;7.50;99.90
25825;DHT22;13658;44.534;18.694;2022-10-16T04:42:19;7.40;99.90
25825;DHT22;13658;44.534;18.694;2022-10-16T04:44:46;7.30;99.90
25825;DHT22;13658;44.534;18.694;2022-10-16T04:47:13;7.30;99.90
25825;DHT22;13658;44.534;18.694;2022-10-16T04:49:39;7.30;99.90
25825;DHT22;13658;44.534;18.694;2022-10-16T04:52:05;7.30;99.90
25825;DHT22;13658;44.534;18.694;2022-10-16T04:54:31;7.20;99.90
25825;DHT22;13658;44.534;18.694;2022-10-16T04:56:57;7.20;99.90
25825;DHT22;13658;44.534;18.694;2022-10-16T04:59:24;7.10;99.90
25825;DHT22;13658;44.534;18.694;2022-10-16T05:01:50;7.10;99.90
25825;DHT22;13658;44.534;18.694;2022-10-16T05:04:16;7.10;99.90
25825;DHT22;13658;44.534;18.694;2022-10-16T05:06:52;7.20;99.90
25825;DHT22;13658;44.534;18.694;2022-10-16T05:09:20;7.50;99.90
25825;DHT22;13658;44.534;18.694;2022-10-16T05:11:46;7.70;99.90
25825;DHT22;13658;44.534;18.694;2022-10-16T05:14:12;7.70;99.90
25825;DHT22;13658;44.534;18.694;2022-10-16T05:16:38;7.90;99.90
25825;DHT22;13658;44.534;18.694;2022-10-16T05:19:04;8.10;99.90
25825;DHT22;13658;44.534;18.694;2022-10-16T05:21:31;8.10;99.90
25825;DHT22;13658;44.534;18.694;2022-10-16T05:23:57;8.30;99.90
25825;DHT22;13658;44.534;18.694;2022-10-16T05:26:23;8.30;99.90
25825;DHT22;13658;44.534;18.694;2022-10-16T05:28:50;8.50;99.90
25825;DHT22;13658;44.534;18.694;2022-10-16T05:31:16;8.40;99.90
25825;DHT22;13658;44.534;18.694;2022-10-16T05:33:43;8.20;99.90
25825;DHT22;13658;44.534;18.694;2022-10-16T05:36:11;8.20;99.90
25825;DHT22;13658;44.534;18.694;2022-10-16T05:38:37;8.30;99.90
25825;DHT22;13658;44.534;18.694;2022-10-16T05:41:05;8.20;99.90
25825;DHT22;13658;44.534;18.694;2022-10-16T05:43:32;8.30;99.90
25825;DHT22;13658;44.534;18.694;2022-10-16T05:46:03;8.40;99.90
25825;DHT22;13658;44.534;18.694;2022-10-16T05:48:30;8.80;99.90
25825;DHT22;13658;44.534;18.694;2022-10-16T05:50:58;9.20;99.90
25825;DHT22;13658;44.534;18.694;2022-10-16T05:53:25;9.50;99.90
25825;DHT22;13658;44.534;18.694;2022-10-16T05:55:55;9.80;99.90
25825;DHT22;13658;44.534;18.694;2022-10-16T05:58:22;10.00;99.90
25825;DHT22;13658;44.534;18.694;2022-10-16T06:01:05;10.20;99.90
25825;DHT22;13658;44.534;18.694;2022-10-16T06:03:33;10.40;99.90
25825;DHT22;13658;44.534;18.694;2022-10-16T06:05:59;10.60;99.90
25825;DHT22;13658;44.534;18.694;2022-10-16T06:08:32;10.80;99.90
25825;DHT22;13658;44.534;18.694;2022-10-16T06:11:11;10.80;99.90
25825;DHT22;13658;44.534;18.694;2022-10-16T06:13:37;11.00;99.90
25825;DHT22;13658;44.534;18.694;2022-10-16T06:16:04;11.00;99.90
25825;DHT22;13658;44.534;18.694;2022-10-16T06:18:31;11.20;99.90
25825;DHT22;13658;44.534;18.694;2022-10-16T06:20:57;11.30;99.90
25825;DHT22;13658;44.534;18.694;2022-10-16T06:23:25;11.50;99.90
25825;DHT22;13658;44.534;18.694;2022-10-16T06:25:51;11.50;99.90
25825;DHT22;13658;44.534;18.694;2022-10-16T06:28:17;11.70;99.90
25825;DHT22;13658;44.534;18.694;2022-10-16T06:30:43;12.00;99.90
25825;DHT22;13658;44.534;18.694;2022-10-16T06:33:12;12.10;99.90
25825;DHT22;13658;44.534;18.694;2022-10-16T06:35:38;12.30;99.90
25825;DHT22;13658;44.534;18.694;2022-10-16T06:38:03;12.60;99.90
25825;DHT22;13658;44.534;18.694;2022-10-16T06:40:30;12.80;99.90
25825;DHT22;13658;44.534;18.694;2022-10-16T06:42:56;13.10;99.90
25825;DHT22;13658;44.534;18.694;2022-10-16T06:45:21;13.30;99.90
25825;DHT22;13658;44.534;18.694;2022-10-16T06:47:47;13.40;99.90
25825;DHT22;13658;44.534;18.694;2022-10-16T06:50:13;13.40;99.90
25825;DHT22;13658;44.534;18.694;2022-10-16T06:52:39;13.70;99.90
25825;DHT22;13658;44.534;18.694;2022-10-16T06:55:05;13.80;99.90
25825;DHT22;13658;44.534;18.694;2022-10-16T06:57:31;14.00;99.90
25825;DHT22;13658;44.534;18.694;2022-10-16T06:59:58;14.30;99.90
25825;DHT22;13658;44.534;18.694;2022-10-16T07:02:24;14.40;99.90
25825;DHT22;13658;44.534;18.694;2022-10-16T07:04:50;14.60;99.90
25825;DHT22;13658;44.534;18.694;2022-10-16T07:07:15;14.50;99.90
25825;DHT22;13658;44.534;18.694;2022-10-16T07:09:41;14.50;99.90
25825;DHT22;13658;44.534;18.694;2022-10-16T07:12:07;14.20;99.90
25825;DHT22;13658;44.534;18.694;2022-10-16T07:14:33;13.90;99.90
25825;DHT22;13658;44.534;18.694;2022-10-16T07:16:59;13.60;99.90
25825;DHT22;13658;44.534;18.694;2022-10-16T07:19:25;13.50;99.90
25825;DHT22;13658;44.534;18.694;2022-10-16T07:21:51;13.50;99.90
25825;DHT22;13658;44.534;18.694;2022-10-16T07:24:17;13.40;99.90
25825;DHT22;13658;44.534;18.694;2022-10-16T07:26:45;13.40;99.90
25825;DHT22;13658;44.534;18.694;2022-10-16T07:29:21;13.20;99.90
25825;DHT22;13658;44.534;18.694;2022-10-16T07:31:48;13.20;99.90
25825;DHT22;13658;44.534;18.694;2022-10-16T07:34:16;13.20;99.90
25825;DHT22;13658;44.534;18.694;2022-10-16T07:36:43;13.20;99.90
25825;DHT22;13658;44.534;18.694;2022-10-16T07:39:12;13.30;99.90
25825;DHT22;13658;44.534;18.694;2022-10-16T07:41:38;13.40;99.90
25825;DHT22;13658;44.534;18.694;2022-10-16T07:44:04;13.50;99.90
25825;DHT22;13658;44.534;18.694;2022-10-16T07:46:30;13.60;99.90
25825;DHT22;13658;44.534;18.694;2022-10-16T07:48:56;13.60;99.90
25825;DHT22;13658;44.534;18.694;2022-10-16T07:51:24;13.70;99.90
25825;DHT22;13658;44.534;18.694;2022-10-16T07:53:50;14.00;99.90
25825;DHT22;13658;44.534;18.694;2022-10-16T07:56:18;14.50;99.90
25825;DHT22;13658;44.534;18.694;2022-10-16T07:58:44;15.20;99.90
25825;DHT22;13658;44.534;18.694;2022-10-16T08:01:12;16.10;99.90
25825;DHT22;13658;44.534;18.694;2022-10-16T08:03:44;17.10;99.90
25825;DHT22;13658;44.534;18.694;2022-10-16T08:06:11;17.80;99.90
25825;DHT22;13658;44.534;18.694;2022-10-16T08:08:37;18.30;99.90
25825;DHT22;13658;44.534;18.694;2022-10-16T08:11:03;18.60;99.90
25825;DHT22;13658;44.534;18.694;2022-10-16T08:13:30;19.20;99.90
25825;DHT22;13658;44.534;18.694;2022-10-16T08:15:56;19.80;99.90
25825;DHT22;13658;44.534;18.694;2022-10-16T08:18:22;19.60;99.90
25825;DHT22;13658;44.534;18.694;2022-10-16T08:20:54;19.80;99.90
25825;DHT22;13658;44.534;18.694;2022-10-16T08:23:20;19.90;99.90
25825;DHT22;13658;44.534;18.694;2022-10-16T08:25:46;20.10;99.90
25825;DHT22;13658;44.534;18.694;2022-10-16T08:28:12;20.90;99.90
25825;DHT22;13658;44.534;18.694;2022-10-16T08:30:38;20.40;99.90
25825;DHT22;13658;44.534;18.694;2022-10-16T08:33:04;20.10;99.90
25825;DHT22;13658;44.534;18.694;2022-10-16T08:35:33;20.90;99.90
25825;DHT22;13658;44.534;18.694;2022-10-16T08:37:59;20.90;99.90
25825;DHT22;13658;44.534;18.694;2022-10-16T08:40:30;21.10;99.90
25825;DHT22;13658;44.534;18.694;2022-10-16T08:45:43;22.10;99.90
25825;DHT22;13658;44.534;18.694;2022-10-16T08:50:41;23.10;99.90
25825;DHT22;13658;44.534;18.694;2022-10-16T08:53:09;23.20;99.90
25825;DHT22;13658;44.534;18.694;2022-10-16T08:55:49;23.30;99.90
25825;DHT22;13658;44.534;18.694;2022-10-16T08:58:18;23.50;99.90
25825;DHT22;13658;44.534;18.694;2022-10-16T09:00:51;23.60;99.90
25825;DHT22;13658;44.534;18.694;2022-10-16T09:03:36;23.80;99.90
25825;DHT22;13658;44.534;18.694;2022-10-16T09:22:55;24.40;99.90
25825;DHT22;13658;44.534;18.694;2022-10-16T09:25:26;25.20;99.90
25825;DHT22;13658;44.534;18.694;2022-10-16T09:27:53;25.60;99.90
25825;DHT22;13658;44.534;18.694;2022-10-16T09:30:21;24.70;99.90
25825;DHT22;13658;44.534;18.694;2022-10-16T09:32:50;24.20;99.90
25825;DHT22;13658;44.534;18.694;2022-10-16T09:35:21;24.00;99.90
25825;DHT22;13658;44.534;18.694;2022-10-16T09:37:50;23.60;99.90
25825;DHT22;13658;44.534;18.694;2022-10-16T09:40:32;23.80;99.90
25825;DHT22;13658;44.534;18.694;2022-10-16T09:43:25;24.80;99.90
25825;DHT22;13658;44.534;18.694;2022-10-16T09:45:59;25.60;99.90
25825;DHT22;13658;44.534;18.694;2022-10-16T09:48:28;25.90;99.90
25825;DHT22;13658;44.534;18.694;2022-10-16T09:51:02;25.90;99.90
25825;DHT22;13658;44.534;18.694;2022-10-16T09:56:05;25.70;99.90
25825;DHT22;13658;44.534;18.694;2022-10-16T09:58:32;24.90;99.90
25825;DHT22;13658;44.534;18.694;2022-10-16T10:00:59;24.50;99.90
25825;DHT22;13658;44.534;18.694;2022-10-16T10:03:39;24.80;99.90
25825;DHT22;13658;44.534;18.694;2022-10-16T10:06:22;25.10;99.90
25825;DHT22;13658;44.534;18.694;2022-10-16T10:09:18;26.30;99.90
25825;DHT22;13658;44.534;18.694;2022-10-16T10:11:52;26.40;99.90
25825;DHT22;13658;44.534;18.694;2022-10-16T10:14:39;25.60;99.90
25825;DHT22;13658;44.534;18.694;2022-10-16T10:19:59;26.70;99.90
25825;DHT22;13658;44.534;18.694;2022-10-16T10:22:39;25.80;99.90
25825;DHT22;13658;44.534;18.694;2022-10-16T10:30:53;24.40;99.90
25825;DHT22;13658;44.534;18.694;2022-10-16T10:33:37;24.30;99.90
25825;DHT22;13658;44.534;18.694;2022-10-16T10:36:38;24.20;99.90
25825;DHT22;13658;44.534;18.694;2022-10-16T10:39:27;24.50;99.90
25825;DHT22;13658;44.534;18.694;2022-10-16T10:42:25;23.60;99.90
25825;DHT22;13658;44.534;18.694;2022-10-16T10:45:20;23.90;99.90
25825;DHT22;13658;44.534;18.694;2022-10-16T10:50:43;23.60;99.90
25825;DHT22;13658;44.534;18.694;2022-10-16T10:56:14;23.50;99.90
25825;DHT22;13658;44.534;18.694;2022-10-16T10:58:50;23.50;99.90
25825;DHT22;13658;44.534;18.694;2022-10-16T11:04:34;23.50;99.90
25825;DHT22;13658;44.534;18.694;2022-10-16T11:07:32;23.30;99.90
25825;DHT22;13658;44.534;18.694;2022-10-16T11:10:15;23.30;99.90
25825;DHT22;13658;44.534;18.694;2022-10-16T11:12:44;23.10;99.90
25825;DHT22;13658;44.534;18.694;2022-10-16T11:15:20;23.20;99.90
25825;DHT22;13658;44.534;18.694;2022-10-16T11:18:27;23.00;99.90
25825;DHT22;13658;44.534;18.694;2022-10-16T11:20:54;22.80;99.90
25825;DHT22;13658;44.534;18.694;2022-10-16T11:23:28;22.70;99.90
25825;DHT22;13658;44.534;18.694;2022-10-16T11:26:04;22.80;99.90
25825;DHT22;13658;44.534;18.694;2022-10-16T11:28:45;22.80;99.90
25825;DHT22;13658;44.534;18.694;2022-10-16T11:36:49;22.60;99.90
25825;DHT22;13658;44.534;18.694;2022-10-16T11:44:44;22.50;99.90
25825;DHT22;13658;44.534;18.694;2022-10-16T11:47:35;22.60;99.90
25825;DHT22;13658;44.534;18.694;2022-10-16T11:50:28;22.60;99.90
25825;DHT22;13658;44.534;18.694;2022-10-16T11:53:23;22.60;99.90
25825;DHT22;13658;44.534;18.694;2022-10-16T11:55:50;22.70;99.90
25825;DHT22;13658;44.534;18.694;2022-10-16T11:58:26;22.50;99.90
25825;DHT22;13658;44.534;18.694;2022-10-16T12:00:58;22.50;99.90
25825;DHT22;13658;44.534;18.694;2022-10-16T12:08:39;22.50;99.90
25825;DHT22;13658;44.534;18.694;2022-10-16T12:11:52;22.40;99.90
25825;DHT22;13658;44.534;18.694;2022-10-16T12:16:55;22.40;99.90
25825;DHT22;13658;44.534;18.694;2022-10-16T12:19:23;22.40;99.90
25825;DHT22;13658;44.534;18.694;2022-10-16T12:21:51;22.30;99.90
25825;DHT22;13658;44.534;18.694;2022-10-16T12:26:49;22.40;99.90
25825;DHT22;13658;44.534;18.694;2022-10-16T12:29:23;22.40;99.90
25825;DHT22;13658;44.534;18.694;2022-10-16T12:31:50;22.50;99.90
25825;DHT22;13658;44.534;18.694;2022-10-16T12:34:41;22.40;99.90
25825;DHT22;13658;44.534;18.694;2022-10-16T12:37:25;22.40;99.90
25825;DHT22;13658;44.534;18.694;2022-10-16T12:39:53;22.40;99.90
25825;DHT22;13658;44.534;18.694;2022-10-16T12:42:32;22.40;99.90
25825;DHT22;13658;44.534;18.694;2022-10-16T12:44:59;22.50;99.90
25825;DHT22;13658;44.534;18.694;2022-10-16T12:49:58;22.60;99.90
25825;DHT22;13658;44.534;18.694;2022-10-16T12:52:39;22.60;99.90
25825;DHT22;13658;44.534;18.694;2022-10-16T12:55:18;22.60;99.90
25825;DHT22;13658;44.534;18.694;2022-10-16T13:09:42;22.50;99.90
25825;DHT22;13658;44.534;18.694;2022-10-16T13:14:58;22.60;99.90
25825;DHT22;13658;44.534;18.694;2022-10-16T13:17:43;22.60;99.90
25825;DHT22;13658;44.534;18.694;2022-10-16T13:20:31;22.60;99.90
25825;DHT22;13658;44.534;18.694;2022-10-16T13:23:14;22.60;99.90
25825;DHT22;13658;44.534;18.694;2022-10-16T13:28:22;22.60;99.90
25825;DHT22;13658;44.534;18.694;2022-10-16T13:30:54;22.60;99.90
25825;DHT22;13658;44.534;18.694;2022-10-16T13:33:37;22.60;99.90
25825;DHT22;13658;44.534;18.694;2022-10-16T13:36:06;22.60;99.90
25825;DHT22;13658;44.534;18.694;2022-10-16T13:38:34;22.60;99.90
25825;DHT22;13658;44.534;18.694;2022-10-16T13:41:12;22.50;99.90
25825;DHT22;13658;44.534;18.694;2022-10-16T13:43:47;22.60;99.90
25825;DHT22;13658;44.534;18.694;2022-10-16T13:46:19;22.60;99.90
25825;DHT22;13658;44.534;18.694;2022-10-16T13:49:16;22.60;99.90
25825;DHT22;13658;44.534;18.694;2022-10-16T13:51:54;22.60;99.90
25825;DHT22;13658;44.534;18.694;2022-10-16T13:54:22;22.40;99.90
25825;DHT22;13658;44.534;18.694;2022-10-16T13:56:48;22.40;99.90
25825;DHT22;13658;44.534;18.694;2022-10-16T13:59:34;22.40;99.90
25825;DHT22;13658;44.534;18.694;2022-10-16T14:02:13;22.30;99.90
25825;DHT22;13658;44.534;18.694;2022-10-16T14:04:41;22.40;99.90
25825;DHT22;13658;44.534;18.694;2022-10-16T14:07:14;22.40;99.90
25825;DHT22;13658;44.534;18.694;2022-10-16T14:09:40;22.30;99.90
25825;DHT22;13658;44.534;18.694;2022-10-16T14:12:11;22.40;99.90
25825;DHT22;13658;44.534;18.694;2022-10-16T14:14:43;22.40;99.90
25825;DHT22;13658;44.534;18.694;2022-10-16T14:17:20;22.40;99.90
25825;DHT22;13658;44.534;18.694;2022-10-16T14:19:49;22.30;99.90
25825;DHT22;13658;44.534;18.694;2022-10-16T14:25:16;22.40;99.90
25825;DHT22;13658;44.534;18.694;2022-10-16T14:28:02;22.40;99.90
25825;DHT22;13658;44.534;18.694;2022-10-16T14:30:29;22.40;99.90
25825;DHT22;13658;44.534;18.694;2022-10-16T14:35:30;22.20;99.90
25825;DHT22;13658;44.534;18.694;2022-10-16T14:37:58;22.00;99.90
25825;DHT22;13658;44.534;18.694;2022-10-16T14:40:27;22.00;99.90
25825;DHT22;13658;44.534;18.694;2022-10-16T14:42:54;21.90;99.90
25825;DHT22;13658;44.534;18.694;2022-10-16T14:45:29;21.90;99.90
25825;DHT22;13658;44.534;18.694;2022-10-16T14:47:56;21.80;99.90
25825;DHT22;13658;44.534;18.694;2022-10-16T14:50:22;21.70;99.90
25825;DHT22;13658;44.534;18.694;2022-10-16T14:52:49;21.60;99.90
25825;DHT22;13658;44.534;18.694;2022-10-16T14:55:15;21.70;99.90
25825;DHT22;13658;44.534;18.694;2022-10-16T14:57:43;21.60;99.90
25825;DHT22;13658;44.534;18.694;2022-10-16T15:00:21;21.50;99.90
25825;DHT22;13658;44.534;18.694;2022-10-16T15:02:49;21.50;99.90
25825;DHT22;13658;44.534;18.694;2022-10-16T15:05:23;21.40;99.90
25825;DHT22;13658;44.534;18.694;2022-10-16T15:07:50;21.40;99.90
25825;DHT22;13658;44.534;18.694;2022-10-16T15:10:17;21.40;99.90
25825;DHT22;13658;44.534;18.694;2022-10-16T15:12:44;21.20;99.90
25825;DHT22;13658;44.534;18.694;2022-10-16T15:15:45;21.10;99.90
25825;DHT22;13658;44.534;18.694;2022-10-16T15:18:11;21.10;99.90
25825;DHT22;13658;44.534;18.694;2022-10-16T15:20:38;21.00;99.90
25825;DHT22;13658;44.534;18.694;2022-10-16T15:23:27;20.90;99.90
25825;DHT22;13658;44.534;18.694;2022-10-16T15:25:54;20.90;99.90
25825;DHT22;13658;44.534;18.694;2022-10-16T15:28:22;20.80;99.90
25825;DHT22;13658;44.534;18.694;2022-10-16T15:30:53;20.80;99.90
25825;DHT22;13658;44.534;18.694;2022-10-16T15:33:26;20.70;99.90
25825;DHT22;13658;44.534;18.694;2022-10-16T15:35:58;20.70;99.90
25825;DHT22;13658;44.534;18.694;2022-10-16T15:38:26;20.70;99.90
25825;DHT22;13658;44.534;18.694;2022-10-16T15:40:53;20.60;99.90
25825;DHT22;13658;44.534;18.694;2022-10-16T15:43:19;20.40;99.90
25825;DHT22;13658;44.534;18.694;2022-10-16T15:46:02;20.40;99.90
25825;DHT22;13658;44.534;18.694;2022-10-16T15:48:30;20.30;99.90
25825;DHT22;13658;44.534;18.694;2022-10-16T15:50:56;20.30;99.90
25825;DHT22;13658;44.534;18.694;2022-10-16T15:53:22;20.20;99.90
25825;DHT22;13658;44.534;18.694;2022-10-16T15:55:48;20.20;99.90
25825;DHT22;13658;44.534;18.694;2022-10-16T15:58:14;20.00;99.90
25825;DHT22;13658;44.534;18.694;2022-10-16T16:00:40;19.90;99.90
25825;DHT22;13658;44.534;18.694;2022-10-16T16:03:06;19.90;99.90
25825;DHT22;13658;44.534;18.694;2022-10-16T16:05:32;19.70;99.90
25825;DHT22;13658;44.534;18.694;2022-10-16T16:08:00;19.60;99.90
25825;DHT22;13658;44.534;18.694;2022-10-16T16:10:28;19.40;99.90
25825;DHT22;13658;44.534;18.694;2022-10-16T16:12:54;19.30;99.90
25825;DHT22;13658;44.534;18.694;2022-10-16T16:15:23;19.10;99.90
25825;DHT22;13658;44.534;18.694;2022-10-16T16:17:51;19.00;99.90
25825;DHT22;13658;44.534;18.694;2022-10-16T16:20:17;18.80;99.90
25825;DHT22;13658;44.534;18.694;2022-10-16T16:22:46;18.90;99.90
25825;DHT22;13658;44.534;18.694;2022-10-16T16:25:17;18.80;99.90
25825;DHT22;13658;44.534;18.694;2022-10-16T16:27:45;18.50;99.90
25825;DHT22;13658;44.534;18.694;2022-10-16T16:30:11;18.40;99.90
25825;DHT22;13658;44.534;18.694;2022-10-16T16:32:37;18.30;99.90
25825;DHT22;13658;44.534;18.694;2022-10-16T16:35:04;18.20;99.90
25825;DHT22;13658;44.534;18.694;2022-10-16T16:37:30;18.10;99.90
25825;DHT22;13658;44.534;18.694;2022-10-16T16:39:56;18.00;99.90
25825;DHT22;13658;44.534;18.694;2022-10-16T16:42:27;17.90;99.90
25825;DHT22;13658;44.534;18.694;2022-10-16T16:44:53;17.80;99.90
25825;DHT22;13658;44.534;18.694;2022-10-16T16:47:19;17.70;99.90
25825;DHT22;13658;44.534;18.694;2022-10-16T16:49:45;17.60;99.90
25825;DHT22;13658;44.534;18.694;2022-10-16T16:52:12;17.50;99.90
25825;DHT22;13658;44.534;18.694;2022-10-16T16:54:38;17.30;99.90
25825;DHT22;13658;44.534;18.694;2022-10-16T16:57:05;17.20;99.90
25825;DHT22;13658;44.534;18.694;2022-10-16T16:59:30;17.20;99.90
25825;DHT22;13658;44.534;18.694;2022-10-16T17:02:02;17.20;99.90
25825;DHT22;13658;44.534;18.694;2022-10-16T17:04:28;17.10;99.90
25825;DHT22;13658;44.534;18.694;2022-10-16T17:06:55;17.00;99.90
25825;DHT22;13658;44.534;18.694;2022-10-16T17:09:21;16.90;99.90
25825;DHT22;13658;44.534;18.694;2022-10-16T17:11:47;16.90;99.90
25825;DHT22;13658;44.534;18.694;2022-10-16T17:14:14;16.80;99.90
25825;DHT22;13658;44.534;18.694;2022-10-16T17:16:40;16.70;99.90
25825;DHT22;13658;44.534;18.694;2022-10-16T17:19:15;16.60;99.90
25825;DHT22;13658;44.534;18.694;2022-10-16T17:21:41;16.60;99.90
25825;DHT22;13658;44.534;18.694;2022-10-16T17:24:08;16.50;99.90
25825;DHT22;13658;44.534;18.694;2022-10-16T17:26:34;16.40;99.90
25825;DHT22;13658;44.534;18.694;2022-10-16T17:29:07;16.30;99.90
25825;DHT22;13658;44.534;18.694;2022-10-16T17:31:36;16.00;99.90